Time,TemperatureF,DewpointF,PressureIn,WindDirection,WindDirectionDegrees,WindSpeedMPH,WindSpeedGustMPH,Humidity,HourlyPrecipIn,Conditions,Clouds,dailyrainin,SoftwareType,DateUTC
2013-07-19 00:00:00,55.7,53.1,29.90,West,265,1.0,7.0,91,0.00,,,0.00,WeatherTracker,2013-07-19 07:00:00,
2013-07-19 00:05:00,55.6,53.0,29.90,West,265,1.0,7.0,91,0.00,,,0.00,WeatherTracker,2013-07-19 07:05:00,
2013-07-19 00:10:00,55.5,52.9,29.90,West,277,10.0,10.0,91,0.00,,,0.00,WeatherTracker,2013-07-19 07:10:00,
2013-07-19 00:15:00,55.5,52.9,29.90,West,263,8.0,10.0,91,0.00,,,0.00,WeatherTracker,2013-07-19 07:15:00,
2013-07-19 00:20:00,55.5,52.9,29.90,WNW,295,5.0,12.0,91,0.00,,,0.00,WeatherTracker,2013-07-19 07:20:00,
2013-07-19 00:25:00,55.5,52.9,29.90,WNW,300,0.0,12.0,91,0.00,,,0.00,WeatherTracker,2013-07-19 07:25:00,
2013-07-19 00:30:00,55.4,52.8,29.89,NW,305,3.0,11.0,91,0.00,,,0.00,WeatherTracker,2013-07-19 07:30:00,
2013-07-19 00:35:00,55.5,52.9,29.89,WNW,292,1.0,11.0,91,0.00,,,0.00,WeatherTracker,2013-07-19 07:35:00,
2013-07-19 00:40:00,55.4,52.8,29.89,NW,319,7.0,10.0,91,0.00,,,0.00,WeatherTracker,2013-07-19 07:40:00,
2013-07-19 00:45:00,55.5,52.9,29.89,West,264,2.0,9.0,91,0.00,,,0.00,WeatherTracker,2013-07-19 07:45:00,
2013-07-19 00:50:00,55.4,52.8,29.89,NW,306,4.0,10.0,91,0.00,,,0.00,WeatherTracker,2013-07-19 07:50:00,
2013-07-19 00:55:00,55.4,52.8,29.89,WNW,302,2.0,10.0,91,0.00,,,0.00,WeatherTracker,2013-07-19 07:55:00,
2013-07-19 01:00:00,55.4,52.8,29.89,West,264,5.0,13.0,91,0.00,,,0.00,WeatherTracker,2013-07-19 08:00:00,
2013-07-19 01:05:00,55.5,53.2,29.89,NNW,344,1.0,13.0,92,0.00,,,0.00,WeatherTracker,2013-07-19 08:05:00,
2013-07-19 01:10:00,55.5,53.2,29.89,NNW,330,4.0,7.0,92,0.00,,,0.00,WeatherTracker,2013-07-19 08:10:00,
2013-07-19 01:15:00,55.4,53.1,29.89,West,281,6.0,10.0,92,0.00,,,0.00,WeatherTracker,2013-07-19 08:15:00,
2013-07-19 01:20:00,55.3,53.0,29.89,WNW,301,6.0,10.0,92,0.00,,,0.00,WeatherTracker,2013-07-19 08:20:00,
2013-07-19 01:26:00,55.2,52.9,29.89,West,274,5.0,11.0,92,0.00,,,0.00,WeatherTracker,2013-07-19 08:26:00,
2013-07-19 01:31:00,55.3,53.0,29.88,West,278,4.0,11.0,92,0.00,,,0.00,WeatherTracker,2013-07-19 08:31:00,
2013-07-19 01:36:00,55.2,52.9,29.88,West,278,1.0,10.0,92,0.00,,,0.00,WeatherTracker,2013-07-19 08:36:00,
2013-07-19 01:41:00,55.2,52.9,29.88,WNW,299,5.0,7.0,92,0.00,,,0.00,WeatherTracker,2013-07-19 08:41:00,
2013-07-19 01:46:00,55.1,52.8,29.88,WNW,287,2.0,10.0,92,0.00,,,0.00,WeatherTracker,2013-07-19 08:46:00,
2013-07-19 01:51:00,55.1,52.8,29.88,WNW,298,0.0,10.0,92,0.00,,,0.00,WeatherTracker,2013-07-19 08:51:00,
2013-07-19 01:56:00,55.3,53.0,29.88,NW,313,5.0,5.0,92,0.00,,,0.00,WeatherTracker,2013-07-19 08:56:00,
2013-07-19 02:01:00,55.2,52.9,29.88,NNW,327,0.0,9.0,92,0.00,,,0.00,WeatherTracker,2013-07-19 09:01:00,
2013-07-19 02:06:00,55.2,52.9,29.88,NW,319,3.0,9.0,92,0.00,,,0.00,WeatherTracker,2013-07-19 09:06:00,
2013-07-19 02:11:00,55.2,52.9,29.88,WNW,296,0.0,5.0,92,0.00,,,0.00,WeatherTracker,2013-07-19 09:11:00,
2013-07-19 02:16:00,55.2,52.9,29.87,WNW,296,0.0,5.0,92,0.00,,,0.00,WeatherTracker,2013-07-19 09:16:00,
2013-07-19 02:21:00,55.2,52.9,29.87,WNW,300,3.0,4.0,92,0.00,,,0.00,WeatherTracker,2013-07-19 09:21:00,
2013-07-19 02:26:00,55.3,53.0,29.87,SE,144,0.0,5.0,92,0.00,,,0.00,WeatherTracker,2013-07-19 09:26:00,
2013-07-19 02:31:00,55.4,53.1,29.87,SE,144,0.0,5.0,92,0.00,,,0.00,WeatherTracker,2013-07-19 09:31:00,
2013-07-19 02:36:00,55.4,53.1,29.87,SE,144,0.0,3.0,92,0.00,,,0.00,WeatherTracker,2013-07-19 09:36:00,
2013-07-19 02:41:00,55.4,53.1,29.87,West,274,6.0,7.0,92,0.00,,,0.00,WeatherTracker,2013-07-19 09:41:00,
2013-07-19 02:46:00,55.2,52.9,29.86,West,281,4.0,9.0,92,0.00,,,0.00,WeatherTracker,2013-07-19 09:46:00,
2013-07-19 02:51:00,55.2,52.9,29.86,WNW,288,0.0,9.0,92,0.00,,,0.00,WeatherTracker,2013-07-19 09:51:00,
2013-07-19 02:56:00,55.3,53.0,29.86,WNW,288,3.0,5.0,92,0.00,,,0.00,WeatherTracker,2013-07-19 09:56:00,
2013-07-19 03:01:00,55.3,53.0,29.86,WNW,289,0.0,5.0,92,0.00,,,0.00,WeatherTracker,2013-07-19 10:01:00,
2013-07-19 03:06:00,55.4,53.1,29.86,WNW,288,3.0,4.0,92,0.00,,,0.00,WeatherTracker,2013-07-19 10:06:00,
2013-07-19 03:11:00,55.6,53.3,29.86,East,81,3.0,5.0,92,0.00,,,0.00,WeatherTracker,2013-07-19 10:11:00,
2013-07-19 03:16:00,55.5,53.2,29.86,East,80,0.0,5.0,92,0.00,,,0.00,WeatherTracker,2013-07-19 10:16:00,
2013-07-19 03:21:00,55.6,53.3,29.86,SSE,156,0.0,5.0,92,0.00,,,0.00,WeatherTracker,2013-07-19 10:21:00,
2013-07-19 03:26:00,55.5,53.2,29.86,West,276,2.0,5.0,92,0.00,,,0.00,WeatherTracker,2013-07-19 10:26:00,
2013-07-19 03:31:00,55.5,53.2,29.85,NNW,330,3.0,5.0,92,0.00,,,0.00,WeatherTracker,2013-07-19 10:31:00,
2013-07-19 03:37:00,55.6,53.3,29.85,NNW,331,1.0,5.0,92,0.00,,,0.00,WeatherTracker,2013-07-19 10:37:00,
2013-07-19 03:42:00,55.8,53.5,29.85,East,88,4.0,5.0,92,0.00,,,0.00,WeatherTracker,2013-07-19 10:42:00,
2013-07-19 03:47:00,55.7,53.4,29.86,ENE,72,3.0,5.0,92,0.00,,,0.00,WeatherTracker,2013-07-19 10:47:00,
2013-07-19 03:52:00,55.6,53.3,29.86,SW,223,2.0,6.0,92,0.00,,,0.00,WeatherTracker,2013-07-19 10:52:00,
2013-07-19 03:57:00,55.4,53.1,29.86,WNW,298,6.0,10.0,92,0.00,,,0.00,WeatherTracker,2013-07-19 10:57:00,
2013-07-19 04:02:00,55.2,52.9,29.87,West,272,2.0,10.0,92,0.00,,,0.00,WeatherTracker,2013-07-19 11:02:00,
2013-07-19 04:07:00,55.2,52.9,29.87,WNW,286,4.0,7.0,92,0.00,,,0.00,WeatherTracker,2013-07-19 11:07:00,
2013-07-19 04:12:00,55.1,52.8,29.87,WNW,287,5.0,11.0,92,0.00,,,0.00,WeatherTracker,2013-07-19 11:12:00,
2013-07-19 04:17:00,55.0,53.0,29.87,West,259,9.0,13.0,93,0.00,,,0.00,WeatherTracker,2013-07-19 11:17:00,
2013-07-19 04:22:00,55.0,53.0,29.87,WSW,258,6.0,13.0,93,0.00,,,0.00,WeatherTracker,2013-07-19 11:22:00,
2013-07-19 04:27:00,55.0,53.0,29.87,SW,235,9.0,11.0,93,0.00,,,0.00,WeatherTracker,2013-07-19 11:27:00,
2013-07-19 04:32:00,55.1,53.1,29.87,WSW,238,11.0,13.0,93,0.00,,,0.00,WeatherTracker,2013-07-19 11:32:00,
2013-07-19 04:37:00,54.9,52.9,29.87,WSW,257,6.0,13.0,93,0.00,,,0.00,WeatherTracker,2013-07-19 11:37:00,
2013-07-19 04:42:00,54.9,52.9,29.87,WSW,252,4.0,13.0,93,0.00,,,0.00,WeatherTracker,2013-07-19 11:42:00,
2013-07-19 04:47:00,55.0,53.0,29.87,West,263,6.0,10.0,93,0.00,,,0.00,WeatherTracker,2013-07-19 11:47:00,
2013-07-19 04:52:00,55.1,53.4,29.87,WSW,257,6.0,14.0,94,0.00,,,0.00,WeatherTracker,2013-07-19 11:52:00,
2013-07-19 04:57:00,55.1,53.4,29.87,WSW,252,10.0,14.0,94,0.00,,,0.00,WeatherTracker,2013-07-19 11:57:00,
2013-07-19 05:02:00,55.1,53.4,29.87,WSW,239,8.0,15.0,94,0.00,,,0.00,WeatherTracker,2013-07-19 12:02:00,
2013-07-19 05:07:00,55.0,53.3,29.87,West,259,5.0,15.0,94,0.00,,,0.00,WeatherTracker,2013-07-19 12:07:00,
2013-07-19 05:13:00,55.0,53.3,29.87,WSW,247,4.0,12.0,94,0.00,,,0.00,WeatherTracker,2013-07-19 12:13:00,
2013-07-19 05:18:00,55.0,53.3,29.87,WSW,257,6.0,13.0,94,0.00,,,0.00,WeatherTracker,2013-07-19 12:18:00,
2013-07-19 05:23:00,55.1,53.4,29.87,WSW,249,10.0,13.0,94,0.00,,,0.00,WeatherTracker,2013-07-19 12:23:00,
2013-07-19 05:28:00,55.0,53.3,29.87,West,275,7.0,12.0,94,0.00,,,0.00,WeatherTracker,2013-07-19 12:28:00,
2013-07-19 05:33:00,55.0,53.3,29.86,WSW,250,5.0,11.0,94,0.00,,,0.00,WeatherTracker,2013-07-19 12:33:00,
2013-07-19 05:38:00,55.0,53.3,29.86,WSW,245,10.0,13.0,94,0.00,,,0.00,WeatherTracker,2013-07-19 12:38:00,
2013-07-19 05:43:00,55.0,53.3,29.86,WSW,256,9.0,13.0,94,0.00,,,0.00,WeatherTracker,2013-07-19 12:43:00,
2013-07-19 05:48:00,55.1,53.4,29.87,West,275,9.0,13.0,94,0.00,,,0.00,WeatherTracker,2013-07-19 12:48:00,
2013-07-19 05:53:00,55.0,53.3,29.87,WSW,251,8.0,14.0,94,0.00,,,0.00,WeatherTracker,2013-07-19 12:53:00,
2013-07-19 05:58:00,54.9,53.2,29.87,WSW,249,11.0,15.0,94,0.00,,,0.00,WeatherTracker,2013-07-19 12:58:00,
2013-07-19 06:03:00,55.0,53.3,29.87,WSW,244,13.0,15.0,94,0.00,,,0.00,WeatherTracker,2013-07-19 13:03:00,
2013-07-19 06:08:00,54.6,52.9,29.87,WSW,256,7.0,19.0,94,0.00,,,0.00,WeatherTracker,2013-07-19 13:08:00,
2013-07-19 06:13:00,54.7,53.0,29.87,West,261,7.0,19.0,94,0.00,,,0.00,WeatherTracker,2013-07-19 13:13:00,
2013-07-19 06:18:00,54.9,53.2,29.87,WSW,239,11.0,16.0,94,0.00,,,0.00,WeatherTracker,2013-07-19 13:18:00,
2013-07-19 06:23:00,54.5,52.8,29.87,West,259,12.0,19.0,94,0.00,,,0.00,WeatherTracker,2013-07-19 13:23:00,
2013-07-19 06:26:00,54.4,52.7,29.87,WNW,289,9.0,19.0,94,0.00,,,0.00,WeatherTracker,2013-07-19 13:26:00,
2013-07-19 06:31:00,54.3,52.6,29.88,SW,232,14.0,19.0,94,0.00,,,0.00,WeatherTracker,2013-07-19 13:31:00,
2013-07-19 06:36:00,54.3,52.6,29.88,West,261,14.0,19.0,94,0.00,,,0.00,WeatherTracker,2013-07-19 13:36:00,
2013-07-19 06:41:00,54.3,52.6,29.88,WSW,254,14.0,19.0,94,0.00,,,0.00,WeatherTracker,2013-07-19 13:41:00,
2013-07-19 06:46:00,54.4,53.0,29.88,SW,233,6.0,18.0,95,0.00,,,0.00,WeatherTracker,2013-07-19 13:46:00,
2013-07-19 06:51:00,54.5,53.1,29.88,WSW,246,10.0,16.0,95,0.00,,,0.00,WeatherTracker,2013-07-19 13:51:00,
2013-07-19 06:56:00,54.7,53.3,29.88,SW,225,13.0,15.0,95,0.00,,,0.00,WeatherTracker,2013-07-19 13:56:00,
2013-07-19 07:01:00,54.7,53.3,29.88,WSW,249,7.0,19.0,95,0.00,,,0.00,WeatherTracker,2013-07-19 14:01:00,
2013-07-19 07:06:00,54.8,53.4,29.88,West,267,11.0,19.0,95,0.00,,,0.00,WeatherTracker,2013-07-19 14:06:00,
2013-07-19 07:11:00,54.9,53.5,29.88,WSW,249,7.0,15.0,95,0.00,,,0.00,WeatherTracker,2013-07-19 14:11:00,
2013-07-19 07:16:00,54.8,53.4,29.88,SW,232,13.0,16.0,95,0.00,,,0.00,WeatherTracker,2013-07-19 14:16:00,
2013-07-19 07:21:00,54.7,53.3,29.88,WSW,258,10.0,16.0,95,0.00,,,0.00,WeatherTracker,2013-07-19 14:21:00,
2013-07-19 07:26:00,54.8,53.4,29.88,WSW,252,5.0,14.0,95,0.00,,,0.00,WeatherTracker,2013-07-19 14:26:00,
2013-07-19 07:31:00,54.9,53.5,29.88,WSW,254,6.0,14.0,95,0.00,,,0.00,WeatherTracker,2013-07-19 14:31:00,
2013-07-19 07:36:00,55.1,53.7,29.88,SW,221,13.0,14.0,95,0.00,,,0.00,WeatherTracker,2013-07-19 14:36:00,
2013-07-19 07:41:00,54.7,53.3,29.88,WSW,252,4.0,16.0,95,0.00,,,0.00,WeatherTracker,2013-07-19 14:41:00,
2013-07-19 07:47:00,54.6,53.2,29.88,SW,232,7.0,16.0,95,0.00,,,0.00,WeatherTracker,2013-07-19 14:47:00,
2013-07-19 07:52:00,54.7,53.3,29.88,SW,234,11.0,15.0,95,0.00,,,0.00,WeatherTracker,2013-07-19 14:52:00,
2013-07-19 07:57:00,54.6,53.2,29.88,WSW,257,5.0,14.0,95,0.00,,,0.00,WeatherTracker,2013-07-19 14:57:00,
2013-07-19 08:02:00,54.7,53.3,29.88,SW,225,13.0,16.0,95,0.00,,,0.00,WeatherTracker,2013-07-19 15:02:00,
2013-07-19 08:07:00,54.6,53.2,29.88,West,259,10.0,16.0,95,0.00,,,0.00,WeatherTracker,2013-07-19 15:07:00,
2013-07-19 08:12:00,54.5,53.1,29.88,SSW,210,8.0,16.0,95,0.00,,,0.00,WeatherTracker,2013-07-19 15:12:00,
2013-07-19 08:17:00,54.4,53.0,29.88,WSW,257,9.0,17.0,95,0.00,,,0.00,WeatherTracker,2013-07-19 15:17:00,
2013-07-19 08:22:00,54.5,53.1,29.88,West,262,6.0,17.0,95,0.00,,,0.00,WeatherTracker,2013-07-19 15:22:00,
2013-07-19 08:27:00,54.5,53.1,29.88,WSW,240,12.0,16.0,95,0.00,,,0.00,WeatherTracker,2013-07-19 15:27:00,
2013-07-19 08:32:00,54.6,53.2,29.89,WSW,246,10.0,15.0,95,0.00,,,0.00,WeatherTracker,2013-07-19 15:32:00,
2013-07-19 08:37:00,54.4,53.0,29.89,WSW,251,12.0,15.0,95,0.00,,,0.00,WeatherTracker,2013-07-19 15:37:00,
2013-07-19 08:42:00,54.4,53.0,29.89,WSW,244,7.0,15.0,95,0.00,,,0.00,WeatherTracker,2013-07-19 15:42:00,
2013-07-19 08:47:00,54.6,53.2,29.90,WSW,250,6.0,15.0,95,0.00,,,0.00,WeatherTracker,2013-07-19 15:47:00,
2013-07-19 08:52:00,54.6,53.2,29.90,West,261,5.0,14.0,95,0.00,,,0.00,WeatherTracker,2013-07-19 15:52:00,
2013-07-19 08:57:00,54.7,53.3,29.90,WSW,246,10.0,14.0,95,0.00,,,0.00,WeatherTracker,2013-07-19 15:57:00,
2013-07-19 09:02:00,54.9,53.5,29.90,SW,226,10.0,14.0,95,0.00,,,0.00,WeatherTracker,2013-07-19 16:02:00,
2013-07-19 09:07:00,55.1,53.7,29.90,WSW,248,7.0,14.0,95,0.00,,,0.00,WeatherTracker,2013-07-19 16:07:00,
2013-07-19 09:12:00,55.2,53.8,29.90,WSW,240,7.0,14.0,95,0.00,,,0.00,WeatherTracker,2013-07-19 16:12:00,
2013-07-19 09:17:00,55.4,54.0,29.89,WSW,252,9.0,12.0,95,0.00,,,0.00,WeatherTracker,2013-07-19 16:17:00,
2013-07-19 09:22:00,55.5,54.1,29.89,WSW,252,3.0,13.0,95,0.00,,,0.00,WeatherTracker,2013-07-19 16:22:00,
2013-07-19 09:28:00,55.7,54.3,29.89,West,265,9.0,13.0,95,0.00,,,0.00,WeatherTracker,2013-07-19 16:28:00,
2013-07-19 09:33:00,56.0,54.6,29.89,West,260,5.0,13.0,95,0.00,,,0.00,WeatherTracker,2013-07-19 16:33:00,
2013-07-19 09:38:00,56.1,54.7,29.89,WSW,250,14.0,15.0,95,0.00,,,0.00,WeatherTracker,2013-07-19 16:38:00,
2013-07-19 09:43:00,56.2,54.8,29.89,WSW,241,5.0,15.0,95,0.00,,,0.00,WeatherTracker,2013-07-19 16:43:00,
2013-07-19 09:48:00,56.3,54.9,29.89,West,261,7.0,14.0,95,0.00,,,0.00,WeatherTracker,2013-07-19 16:48:00,
2013-07-19 09:53:00,56.4,54.7,29.89,WSW,251,13.0,13.0,94,0.00,,,0.00,WeatherTracker,2013-07-19 16:53:00,
2013-07-19 09:58:00,56.6,54.9,29.89,SW,232,4.0,13.0,94,0.00,,,0.00,WeatherTracker,2013-07-19 16:58:00,
2013-07-19 10:03:00,56.8,54.8,29.88,WSW,254,9.0,13.0,93,0.00,,,0.00,WeatherTracker,2013-07-19 17:03:00,
2013-07-19 10:08:00,56.9,54.6,29.88,WSW,252,10.0,16.0,92,0.00,,,0.00,WeatherTracker,2013-07-19 17:08:00,
2013-07-19 10:13:00,56.8,54.5,29.88,West,273,13.0,16.0,92,0.00,,,0.00,WeatherTracker,2013-07-19 17:13:00,
2013-07-19 10:18:00,56.5,54.2,29.89,WSW,238,11.0,18.0,92,0.00,,,0.00,WeatherTracker,2013-07-19 17:18:00,
2013-07-19 10:23:00,56.4,54.1,29.89,WSW,246,9.0,18.0,92,0.00,,,0.00,WeatherTracker,2013-07-19 17:23:00,
2013-07-19 10:28:00,56.2,53.9,29.89,WSW,250,9.0,16.0,92,0.00,,,0.00,WeatherTracker,2013-07-19 17:28:00,
2013-07-19 10:33:00,55.9,53.6,29.89,WSW,239,11.0,16.0,92,0.00,,,0.00,WeatherTracker,2013-07-19 17:33:00,
2013-07-19 10:38:00,56.2,54.2,29.89,WSW,248,12.0,17.0,93,0.00,,,0.00,WeatherTracker,2013-07-19 17:38:00,
2013-07-19 10:43:00,56.2,54.2,29.89,WSW,254,14.0,17.0,93,0.00,,,0.00,WeatherTracker,2013-07-19 17:43:00,
2013-07-19 10:48:00,56.6,54.6,29.89,West,267,13.0,17.0,93,0.00,,,0.00,WeatherTracker,2013-07-19 17:48:00,
2013-07-19 10:53:00,56.6,54.6,29.89,WSW,252,13.0,17.0,93,0.00,,,0.00,WeatherTracker,2013-07-19 17:53:00,
2013-07-19 10:58:00,56.8,54.8,29.89,WSW,249,12.0,17.0,93,0.00,,,0.00,WeatherTracker,2013-07-19 17:58:00,
2013-07-19 11:03:00,57.0,55.0,29.89,WSW,238,11.0,16.0,93,0.00,,,0.00,WeatherTracker,2013-07-19 18:03:00,
2013-07-19 11:08:00,57.7,55.4,29.89,WSW,244,9.0,14.0,92,0.00,,,0.00,WeatherTracker,2013-07-19 18:08:00,
2013-07-19 11:13:00,58.5,56.2,29.89,NNE,25,4.0,13.0,92,0.00,,,0.00,WeatherTracker,2013-07-19 18:13:00,
2013-07-19 11:19:00,59.6,56.4,29.89,NE,35,0.0,13.0,89,0.00,,,0.00,WeatherTracker,2013-07-19 18:19:00,
2013-07-19 11:24:00,60.3,56.7,29.89,NE,53,1.0,7.0,88,0.00,,,0.00,WeatherTracker,2013-07-19 18:24:00,
2013-07-19 11:29:00,60.2,56.0,29.88,WSW,242,5.0,9.0,86,0.00,,,0.00,WeatherTracker,2013-07-19 18:29:00,
2013-07-19 11:34:00,59.9,56.0,29.88,WNW,298,1.0,12.0,87,0.00,,,0.00,WeatherTracker,2013-07-19 18:34:00,
2013-07-19 11:39:00,60.0,55.8,29.88,WSW,244,8.0,12.0,86,0.00,,,0.00,WeatherTracker,2013-07-19 18:39:00,
2013-07-19 11:44:00,60.1,55.9,29.88,West,276,3.0,13.0,86,0.00,,,0.00,WeatherTracker,2013-07-19 18:44:00,
2013-07-19 11:49:00,59.8,55.6,29.88,WNW,288,4.0,14.0,86,0.00,,,0.00,WeatherTracker,2013-07-19 18:49:00,
2013-07-19 11:54:00,59.8,55.6,29.88,West,269,7.0,15.0,86,0.00,,,0.00,WeatherTracker,2013-07-19 18:54:00,
2013-07-19 11:59:00,59.7,55.5,29.88,West,271,9.0,15.0,86,0.00,,,0.00,WeatherTracker,2013-07-19 18:59:00,
2013-07-19 12:04:00,59.6,55.1,29.88,SSW,212,6.0,13.0,85,0.00,,,0.00,WeatherTracker,2013-07-19 19:04:00,
2013-07-19 12:09:00,60.0,56.1,29.88,NW,311,4.0,14.0,87,0.00,,,0.00,WeatherTracker,2013-07-19 19:09:00,
2013-07-19 12:14:00,60.7,56.2,29.88,WNW,290,2.0,14.0,85,0.00,,,0.00,WeatherTracker,2013-07-19 19:14:00,
2013-07-19 12:19:00,60.4,55.5,29.88,WSW,244,9.0,13.0,84,0.00,,,0.00,WeatherTracker,2013-07-19 19:19:00,
2013-07-19 12:24:00,60.0,55.1,29.88,West,260,10.0,14.0,84,0.00,,,0.00,WeatherTracker,2013-07-19 19:24:00,
2013-07-19 12:29:00,60.1,55.6,29.87,WSW,249,5.0,14.0,85,0.00,,,0.00,WeatherTracker,2013-07-19 19:29:00,
2013-07-19 12:34:00,60.5,56.0,29.87,WSW,241,8.0,15.0,85,0.00,,,0.00,WeatherTracker,2013-07-19 19:34:00,
2013-07-19 12:39:00,61.6,57.0,29.87,ENE,60,3.0,15.0,85,0.00,,,0.00,WeatherTracker,2013-07-19 19:39:00,
2013-07-19 12:44:00,62.4,56.8,29.87,ENE,70,4.0,12.0,82,0.00,,,0.00,WeatherTracker,2013-07-19 19:44:00,
2013-07-19 12:50:00,61.6,56.0,29.87,West,262,11.0,11.0,82,0.00,,,0.00,WeatherTracker,2013-07-19 19:50:00,
2013-07-19 12:55:00,61.4,55.9,29.87,SW,217,4.0,11.0,82,0.00,,,0.00,WeatherTracker,2013-07-19 19:55:00,
2013-07-19 13:00:00,61.7,56.5,29.87,NE,44,3.0,11.0,83,0.00,,,0.00,WeatherTracker,2013-07-19 20:00:00,
2013-07-19 13:05:00,62.1,56.5,29.87,SE,126,3.0,11.0,82,0.00,,,0.00,WeatherTracker,2013-07-19 20:05:00,
2013-07-19 13:10:00,62.3,56.7,29.87,ESE,121,3.0,6.0,82,0.00,,,0.00,WeatherTracker,2013-07-19 20:10:00,
2013-07-19 13:15:00,62.9,57.0,29.86,ESE,123,2.0,6.0,81,0.00,,,0.00,WeatherTracker,2013-07-19 20:15:00,
2013-07-19 13:20:00,62.3,56.0,29.86,WSW,242,6.0,11.0,80,0.00,,,0.00,WeatherTracker,2013-07-19 20:20:00,
2013-07-19 13:25:00,62.1,56.2,29.86,WSW,252,6.0,11.0,81,0.00,,,0.00,WeatherTracker,2013-07-19 20:25:00,
2013-07-19 13:30:00,62.1,56.5,29.85,West,266,4.0,10.0,82,0.00,,,0.00,WeatherTracker,2013-07-19 20:30:00,
2013-07-19 13:35:00,62.4,56.5,29.85,SSW,211,6.0,10.0,81,0.00,,,0.00,WeatherTracker,2013-07-19 20:35:00,
2013-07-19 13:40:00,62.4,56.5,29.85,South,180,5.0,10.0,81,0.00,,,0.00,WeatherTracker,2013-07-19 20:40:00,
2013-07-19 13:45:00,62.5,56.2,29.85,West,267,13.0,13.0,80,0.00,,,0.00,WeatherTracker,2013-07-19 20:45:00,
2013-07-19 13:50:00,62.1,55.9,29.85,SW,236,5.0,13.0,80,0.00,,,0.00,WeatherTracker,2013-07-19 20:50:00,
2013-07-19 13:55:00,62.2,55.9,29.85,SE,138,4.0,13.0,80,0.00,,,0.00,WeatherTracker,2013-07-19 20:55:00,
2013-07-19 14:00:00,62.6,56.3,29.84,WSW,250,8.0,10.0,80,0.00,,,0.00,WeatherTracker,2013-07-19 21:00:00,
2013-07-19 14:05:00,62.7,56.4,29.84,West,267,4.0,11.0,80,0.00,,,0.00,WeatherTracker,2013-07-19 21:05:00,
2013-07-19 14:10:00,62.5,56.2,29.84,SW,232,3.0,11.0,80,0.00,,,0.00,WeatherTracker,2013-07-19 21:10:00,
2013-07-19 14:15:00,62.6,56.3,29.84,WSW,237,2.0,10.0,80,0.00,,,0.00,WeatherTracker,2013-07-19 21:15:00,
2013-07-19 14:20:00,62.7,56.4,29.84,SSW,204,5.0,9.0,80,0.00,,,0.00,WeatherTracker,2013-07-19 21:20:00,
2013-07-19 14:25:00,62.8,56.5,29.84,SSW,207,1.0,7.0,80,0.00,,,0.00,WeatherTracker,2013-07-19 21:25:00,
2013-07-19 14:31:00,62.9,56.3,29.84,SW,227,2.0,7.0,79,0.00,,,0.00,WeatherTracker,2013-07-19 21:31:00,
2013-07-19 14:36:00,62.8,56.2,29.84,SW,227,2.0,7.0,79,0.00,,,0.00,WeatherTracker,2013-07-19 21:36:00,
2013-07-19 14:41:00,62.9,56.6,29.84,SW,227,1.0,6.0,80,0.00,,,0.00,WeatherTracker,2013-07-19 21:41:00,
2013-07-19 14:46:00,63.2,56.6,29.83,SW,225,0.0,6.0,79,0.00,,,0.00,WeatherTracker,2013-07-19 21:46:00,
2013-07-19 14:51:00,63.6,57.0,29.83,SW,225,2.0,5.0,79,0.00,,,0.00,WeatherTracker,2013-07-19 21:51:00,
2013-07-19 14:56:00,63.7,57.1,29.83,SW,225,4.0,5.0,79,0.00,,,0.00,WeatherTracker,2013-07-19 21:56:00,
2013-07-19 15:01:00,63.6,57.0,29.82,SE,144,3.0,5.0,79,0.00,,,0.00,WeatherTracker,2013-07-19 22:01:00,
2013-07-19 15:06:00,63.7,57.1,29.82,SE,126,3.0,4.0,79,0.00,,,0.00,WeatherTracker,2013-07-19 22:06:00,
2013-07-19 15:11:00,63.2,56.6,29.82,South,172,3.0,7.0,79,0.00,,,0.00,WeatherTracker,2013-07-19 22:11:00,
2013-07-19 15:16:00,62.8,56.5,29.82,ESE,113,5.0,7.0,80,0.00,,,0.00,WeatherTracker,2013-07-19 22:16:00,
2013-07-19 15:21:00,62.7,56.8,29.82,SSE,149,5.0,6.0,81,0.00,,,0.00,WeatherTracker,2013-07-19 22:21:00,
2013-07-19 15:26:00,63.0,57.1,29.82,South,173,6.0,12.0,81,0.00,,,0.00,WeatherTracker,2013-07-19 22:26:00,
2013-07-19 15:31:00,63.1,57.2,29.81,SSE,160,5.0,12.0,81,0.00,,,0.00,WeatherTracker,2013-07-19 22:31:00,
2013-07-19 15:36:00,63.1,57.2,29.81,SW,215,6.0,12.0,81,0.00,,,0.00,WeatherTracker,2013-07-19 22:36:00,
2013-07-19 15:41:00,63.1,57.2,29.81,SW,234,4.0,12.0,81,0.00,,,0.00,WeatherTracker,2013-07-19 22:41:00,
2013-07-19 15:46:00,63.1,57.2,29.81,SSE,164,1.0,11.0,81,0.00,,,0.00,WeatherTracker,2013-07-19 22:46:00,
2013-07-19 15:51:00,63.1,57.2,29.81,SSW,205,1.0,6.0,81,0.00,,,0.00,WeatherTracker,2013-07-19 22:51:00,
2013-07-19 15:57:00,63.3,57.4,29.81,WSW,251,4.0,7.0,81,0.00,,,0.00,WeatherTracker,2013-07-19 22:57:00,
2013-07-19 16:02:00,63.1,57.2,29.81,SSW,192,2.0,13.0,81,0.00,,,0.00,WeatherTracker,2013-07-19 23:02:00,
2013-07-19 16:07:00,62.8,56.9,29.81,SE,140,4.0,13.0,81,0.00,,,0.00,WeatherTracker,2013-07-19 23:07:00,
2013-07-19 16:12:00,63.0,57.1,29.81,SE,140,0.0,6.0,81,0.00,,,0.00,WeatherTracker,2013-07-19 23:12:00,
2013-07-19 16:17:00,63.2,57.3,29.81,SE,134,2.0,7.0,81,0.00,,,0.00,WeatherTracker,2013-07-19 23:17:00,
2013-07-19 16:22:00,63.5,57.6,29.81,SE,134,1.0,7.0,81,0.00,,,0.00,WeatherTracker,2013-07-19 23:22:00,
2013-07-19 16:27:00,63.5,57.2,29.81,ESE,123,1.0,7.0,80,0.00,,,0.00,WeatherTracker,2013-07-19 23:27:00,
2013-07-19 16:32:00,63.3,57.0,29.80,South,185,2.0,7.0,80,0.00,,,0.00,WeatherTracker,2013-07-19 23:32:00,
2013-07-19 16:37:00,63.5,57.6,29.80,South,185,2.0,6.0,81,0.00,,,0.00,WeatherTracker,2013-07-19 23:37:00,
2013-07-19 16:42:00,63.0,56.7,29.80,SSW,194,5.0,11.0,80,0.00,,,0.00,WeatherTracker,2013-07-19 23:42:00,
2013-07-19 16:47:00,62.6,56.7,29.80,SSW,195,2.0,11.0,81,0.00,,,0.00,WeatherTracker,2013-07-19 23:47:00,
2013-07-19 16:52:00,62.6,56.7,29.80,SSW,195,0.0,9.0,81,0.00,,,0.00,WeatherTracker,2013-07-19 23:52:00,
2013-07-19 16:57:00,62.9,57.0,29.80,SSE,151,3.0,9.0,81,0.00,,,0.00,WeatherTracker,2013-07-19 23:57:00,
2013-07-19 17:02:00,62.8,56.9,29.79,SSE,163,4.0,9.0,81,0.00,,,0.00,WeatherTracker,2013-07-20 00:02:00,
2013-07-19 17:07:00,62.9,57.0,29.79,ESE,115,1.0,6.0,81,0.00,,,0.00,WeatherTracker,2013-07-20 00:07:00,
2013-07-19 17:12:00,63.1,56.8,29.79,ESE,111,3.0,7.0,80,0.00,,,0.00,WeatherTracker,2013-07-20 00:12:00,
2013-07-19 17:17:00,63.2,56.9,29.79,SSW,196,5.0,10.0,80,0.00,,,0.00,WeatherTracker,2013-07-20 00:17:00,
2013-07-19 17:22:00,63.1,56.8,29.79,South,184,0.0,10.0,80,0.00,,,0.00,WeatherTracker,2013-07-20 00:22:00,
2013-07-19 17:27:00,64.3,57.3,29.79,NNE,28,0.0,13.0,78,0.00,,,0.00,WeatherTracker,2013-07-20 00:27:00,
2013-07-19 17:32:00,64.0,56.3,29.78,SSW,202,4.0,13.0,76,0.00,,,0.00,WeatherTracker,2013-07-20 00:32:00,
2013-07-19 17:37:00,63.8,56.4,29.78,WNW,303,2.0,12.0,77,0.00,,,0.00,WeatherTracker,2013-07-20 00:37:00,
2013-07-19 17:42:00,63.9,56.5,29.78,WNW,301,2.0,10.0,77,0.00,,,0.00,WeatherTracker,2013-07-20 00:42:00,
2013-07-19 17:47:00,64.0,55.9,29.78,West,280,8.0,13.0,75,0.00,,,0.00,WeatherTracker,2013-07-20 00:47:00,
2013-07-19 17:53:00,62.9,55.6,29.78,NW,317,7.0,19.0,77,0.00,,,0.00,WeatherTracker,2013-07-20 00:53:00,
2013-07-19 17:58:00,62.9,55.6,29.78,North,9,11.0,19.0,77,0.00,,,0.00,WeatherTracker,2013-07-20 00:58:00,
2013-07-19 18:03:00,62.8,55.5,29.78,WNW,296,6.0,18.0,77,0.00,,,0.00,WeatherTracker,2013-07-20 01:03:00,
2013-07-19 18:08:00,62.9,55.6,29.78,North,355,16.0,20.0,77,0.00,,,0.00,WeatherTracker,2013-07-20 01:08:00,
2013-07-19 18:13:00,62.5,55.2,29.78,NNW,331,6.0,20.0,77,0.00,,,0.00,WeatherTracker,2013-07-20 01:13:00,
2013-07-19 18:18:00,62.6,55.6,29.77,NNW,334,10.0,21.0,78,0.00,,,0.00,WeatherTracker,2013-07-20 01:18:00,
2013-07-19 18:23:00,62.5,55.2,29.77,SW,234,1.0,21.0,77,0.00,,,0.00,WeatherTracker,2013-07-20 01:23:00,
2013-07-19 18:28:00,62.4,55.4,29.77,West,263,7.0,15.0,78,0.00,,,0.00,WeatherTracker,2013-07-20 01:28:00,
2013-07-19 18:33:00,61.3,54.7,29.77,WSW,240,3.0,11.0,79,0.00,,,0.00,WeatherTracker,2013-07-20 01:33:00,
2013-07-19 18:38:00,61.0,55.1,29.77,SSE,153,3.0,11.0,81,0.00,,,0.00,WeatherTracker,2013-07-20 01:38:00,
2013-07-19 18:43:00,61.1,54.9,29.77,NW,318,10.0,14.0,80,0.00,,,0.00,WeatherTracker,2013-07-20 01:43:00,
2013-07-19 18:48:00,61.6,55.0,29.77,NW,310,13.0,19.0,79,0.00,,,0.00,WeatherTracker,2013-07-20 01:48:00,
2013-07-19 18:53:00,61.3,54.7,29.77,NW,310,11.0,20.0,79,0.00,,,0.00,WeatherTracker,2013-07-20 01:53:00,
2013-07-19 18:58:00,61.5,55.3,29.77,North,350,11.0,20.0,80,0.00,,,0.00,WeatherTracker,2013-07-20 01:58:00,
2013-07-19 19:03:00,61.6,55.0,29.77,WNW,303,7.0,16.0,79,0.00,,,0.00,WeatherTracker,2013-07-20 02:03:00,
2013-07-19 19:09:00,61.9,55.3,29.77,NNW,341,5.0,16.0,79,0.00,,,0.00,WeatherTracker,2013-07-20 02:09:00,
2013-07-19 19:14:00,61.8,55.2,29.77,WNW,291,9.0,15.0,79,0.00,,,0.00,WeatherTracker,2013-07-20 02:14:00,
2013-07-19 19:19:00,61.0,54.4,29.77,NW,317,10.0,22.0,79,0.00,,,0.00,WeatherTracker,2013-07-20 02:19:00,
2013-07-19 19:24:00,59.7,54.2,29.77,WNW,296,3.0,22.0,82,0.00,,,0.00,WeatherTracker,2013-07-20 02:24:00,
2013-07-19 19:29:00,59.6,54.1,29.77,NW,304,13.0,15.0,82,0.00,,,0.00,WeatherTracker,2013-07-20 02:29:00,
2013-07-19 19:34:00,59.5,54.3,29.77,NW,319,5.0,20.0,83,0.00,,,0.00,WeatherTracker,2013-07-20 02:34:00,
2013-07-19 19:39:00,58.6,53.5,29.77,WSW,258,11.0,20.0,83,0.00,,,0.00,WeatherTracker,2013-07-20 02:39:00,
2013-07-19 19:44:00,58.1,53.6,29.77,West,272,10.0,21.0,85,0.00,,,0.00,WeatherTracker,2013-07-20 02:44:00,
2013-07-19 19:49:00,58.4,53.9,29.77,WNW,297,9.0,21.0,85,0.00,,,0.00,WeatherTracker,2013-07-20 02:49:00,
2013-07-19 19:54:00,58.5,54.0,29.77,WNW,283,5.0,24.0,85,0.00,,,0.00,WeatherTracker,2013-07-20 02:54:00,
2013-07-19 19:59:00,58.4,53.9,29.77,NW,319,12.0,24.0,85,0.00,,,0.00,WeatherTracker,2013-07-20 02:59:00,
2013-07-19 20:04:00,58.0,53.5,29.77,NW,312,10.0,24.0,85,0.00,,,0.00,WeatherTracker,2013-07-20 03:04:00,
2013-07-19 20:09:00,57.6,53.8,29.77,NNW,332,18.0,24.0,87,0.00,,,0.00,WeatherTracker,2013-07-20 03:09:00,
2013-07-19 20:14:00,57.7,53.5,29.77,ENE,75,5.0,23.0,86,0.00,,,0.00,WeatherTracker,2013-07-20 03:14:00,
2013-07-19 20:19:00,57.7,53.5,29.77,West,280,10.0,25.0,86,0.00,,,0.00,WeatherTracker,2013-07-20 03:19:00,
2013-07-19 20:20:00,57.6,53.4,29.77,WNW,286,8.0,25.0,86,0.00,,,0.00,WeatherTracker,2013-07-20 03:20:00,
2013-07-19 20:25:00,57.7,53.9,29.77,West,269,14.0,23.0,87,0.00,,,0.00,WeatherTracker,2013-07-20 03:25:00,
2013-07-19 20:30:00,57.6,53.4,29.78,WNW,299,11.0,22.0,86,0.00,,,0.00,WeatherTracker,2013-07-20 03:30:00,
2013-07-19 20:35:00,57.8,54.0,29.78,WNW,300,5.0,22.0,87,0.00,,,0.00,WeatherTracker,2013-07-20 03:35:00,
2013-07-19 20:40:00,58.0,54.2,29.78,WNW,298,12.0,17.0,87,0.00,,,0.00,WeatherTracker,2013-07-20 03:40:00,
2013-07-19 20:45:00,57.6,53.4,29.78,NW,309,6.0,22.0,86,0.00,,,0.00,WeatherTracker,2013-07-20 03:45:00,
2013-07-19 20:50:00,56.8,53.0,29.78,NW,304,22.0,22.0,87,0.00,,,0.00,WeatherTracker,2013-07-20 03:50:00,
2013-07-19 20:55:00,56.9,53.4,29.78,WNW,296,14.0,22.0,88,0.00,,,0.00,WeatherTracker,2013-07-20 03:55:00,
2013-07-19 21:00:00,57.1,53.3,29.79,NNW,334,12.0,22.0,87,0.00,,,0.00,WeatherTracker,2013-07-20 04:00:00,
2013-07-19 21:01:00,57.0,53.2,29.79,NW,311,18.0,20.0,87,0.00,,,0.00,WeatherTracker,2013-07-20 04:01:00,
2013-07-19 21:02:00,57.0,53.2,29.79,NNW,336,16.0,20.0,87,0.00,,,0.00,WeatherTracker,2013-07-20 04:02:00,
2013-07-19 21:07:00,56.7,52.9,29.79,North,5,11.0,21.0,87,0.00,,,0.00,WeatherTracker,2013-07-20 04:07:00,
2013-07-19 21:12:00,56.8,53.3,29.79,NNE,24,12.0,21.0,88,0.00,,,0.00,WeatherTracker,2013-07-20 04:12:00,
2013-07-19 21:17:00,56.6,53.1,29.79,NW,310,12.0,21.0,88,0.00,,,0.00,WeatherTracker,2013-07-20 04:17:00,
2013-07-19 21:22:00,56.4,52.9,29.79,NNW,330,14.0,21.0,88,0.00,,,0.00,WeatherTracker,2013-07-20 04:22:00,
2013-07-19 21:27:00,56.2,52.7,29.79,NW,305,20.0,20.0,88,0.00,,,0.00,WeatherTracker,2013-07-20 04:27:00,
2013-07-19 21:32:00,56.1,52.9,29.79,NNW,346,15.0,20.0,89,0.00,,,0.00,WeatherTracker,2013-07-20 04:32:00,
2013-07-19 21:37:00,56.1,52.9,29.79,NNW,336,11.0,22.0,89,0.00,,,0.00,WeatherTracker,2013-07-20 04:37:00,
2013-07-19 21:42:00,56.1,52.9,29.79,NNW,327,13.0,22.0,89,0.00,,,0.00,WeatherTracker,2013-07-20 04:42:00,
2013-07-19 21:47:00,56.0,52.8,29.81,NNW,347,7.0,20.0,89,0.00,,,0.00,WeatherTracker,2013-07-20 04:47:00,
2013-07-19 21:52:00,55.8,52.6,29.81,NNW,333,12.0,20.0,89,0.00,,,0.00,WeatherTracker,2013-07-20 04:52:00,
2013-07-19 21:57:00,55.8,52.6,29.81,NNE,20,5.0,18.0,89,0.00,,,0.00,WeatherTracker,2013-07-20 04:57:00,
2013-07-19 22:02:00,55.9,52.7,29.81,North,351,10.0,17.0,89,0.00,,,0.00,WeatherTracker,2013-07-20 05:02:00,
2013-07-19 22:07:00,55.9,52.7,29.81,NNE,15,7.0,16.0,89,0.00,,,0.00,WeatherTracker,2013-07-20 05:07:00,
2013-07-19 22:12:00,56.0,52.8,29.81,NNW,338,9.0,16.0,89,0.00,,,0.00,WeatherTracker,2013-07-20 05:12:00,
2013-07-19 22:17:00,55.8,52.6,29.81,NW,322,4.0,17.0,89,0.00,,,0.00,WeatherTracker,2013-07-20 05:17:00,
2013-07-19 22:22:00,55.6,52.7,29.81,NNW,341,7.0,17.0,90,0.00,,,0.00,WeatherTracker,2013-07-20 05:22:00,
2013-07-19 22:27:00,55.4,52.5,29.81,NNW,346,5.0,17.0,90,0.00,,,0.00,WeatherTracker,2013-07-20 05:27:00,
2013-07-19 22:32:00,55.5,52.6,29.81,North,355,3.0,14.0,90,0.00,,,0.00,WeatherTracker,2013-07-20 05:32:00,
2013-07-19 22:37:00,55.4,52.5,29.81,NNE,20,0.0,14.0,90,0.00,,,0.00,WeatherTracker,2013-07-20 05:37:00,
2013-07-19 22:42:00,55.4,52.5,29.81,NNW,348,3.0,9.0,90,0.00,,,0.00,WeatherTracker,2013-07-20 05:42:00,
2013-07-19 22:48:00,55.4,52.5,29.81,NW,319,0.0,12.0,90,0.00,,,0.00,WeatherTracker,2013-07-20 05:48:00,
2013-07-19 22:53:00,55.5,52.6,29.81,NW,306,4.0,12.0,90,0.00,,,0.00,WeatherTracker,2013-07-20 05:53:00,
2013-07-19 22:58:00,55.5,52.6,29.81,West,267,2.0,11.0,90,0.00,,,0.00,WeatherTracker,2013-07-20 05:58:00,
2013-07-19 23:03:00,55.8,52.9,29.81,West,267,0.0,11.0,90,0.00,,,0.00,WeatherTracker,2013-07-20 06:03:00,
2013-07-19 23:08:00,55.7,52.8,29.81,NNE,31,1.0,10.0,90,0.00,,,0.00,WeatherTracker,2013-07-20 06:08:00,
2013-07-19 23:13:00,55.8,52.9,29.81,East,88,0.0,10.0,90,0.00,,,0.00,WeatherTracker,2013-07-20 06:13:00,
2013-07-19 23:18:00,55.7,52.8,29.81,West,274,1.0,13.0,90,0.00,,,0.00,WeatherTracker,2013-07-20 06:18:00,
2013-07-19 23:23:00,55.8,52.9,29.81,West,261,6.0,13.0,90,0.00,,,0.00,WeatherTracker,2013-07-20 06:23:00,
2013-07-19 23:28:00,55.8,52.9,29.81,West,264,1.0,12.0,90,0.00,,,0.00,WeatherTracker,2013-07-20 06:28:00,
2013-07-19 23:33:00,55.9,53.0,29.81,North,355,2.0,12.0,90,0.00,,,0.00,WeatherTracker,2013-07-20 06:33:00,
2013-07-19 23:38:00,55.7,52.8,29.81,West,271,5.0,9.0,90,0.00,,,0.00,WeatherTracker,2013-07-20 06:38:00,
2013-07-19 23:43:00,55.7,52.8,29.81,West,271,6.0,9.0,90,0.00,,,0.00,WeatherTracker,2013-07-20 06:43:00,
2013-07-19 23:48:00,55.6,52.7,29.81,West,271,0.0,6.0,90,0.00,,,0.00,WeatherTracker,2013-07-20 06:48:00,
2013-07-19 23:53:00,55.5,52.6,29.81,West,259,10.0,14.0,90,0.00,,,0.00,WeatherTracker,2013-07-20 06:53:00,
2013-07-19 23:58:00,55.4,52.5,29.81,WNW,299,4.0,14.0,90,0.00,,,0.00,WeatherTracker,2013-07-20 06:58:00,